Time;durP1;ratioP1;P1;durP2;ratioP2;P2;SDS_P1;SDS_P2;PMS_P1;PMS_P2;Temp;Humidity;BMP_temperature;BMP_pressure;BME280_temperature;BME280_humidity;BME280_pressure;Samples;Min_cycle;Max_cycle;Signal;HPM_P1;HPM_P2
2022/07/24 00:00:33;;;;;;;7.72;4.18;;;18.10;95.60;;;;;;5054080;28;20061;-33
2022/07/24 00:02:59;;;;;;;5.50;3.17;;;18.00;95.60;;;;;;5053569;28;20041;-33
2022/07/24 00:05:26;;;;;;;8.00;4.18;;;17.90;95.30;;;;;;5062099;28;20048;-33
2022/07/24 00:07:53;;;;;;;5.88;3.78;;;17.90;95.60;;;;;;5048833;28;20046;-33
2022/07/24 00:10:20;;;;;;;5.07;3.78;;;17.90;95.40;;;;;;5044428;28;20045;-33
2022/07/24 00:12:46;;;;;;;5.28;4.00;;;17.90;95.60;;;;;;5057758;28;20123;-33
2022/07/24 00:15:13;;;;;;;5.78;3.92;;;17.90;95.60;;;;;;5041792;28;20055;-33
2022/07/24 00:17:41;;;;;;;6.93;4.40;;;17.90;95.50;;;;;;5046167;28;20445;-33
2022/07/24 00:20:09;;;;;;;7.32;4.75;;;17.90;95.50;;;;;;5054620;28;20069;-34
2022/07/24 00:22:36;;;;;;;8.63;5.10;;;17.90;95.80;;;;;;5047877;28;20128;-34
2022/07/24 00:25:03;;;;;;;7.35;3.92;;;17.80;95.90;;;;;;5071917;28;20090;-33
2022/07/24 00:27:30;;;;;;;8.15;5.47;;;17.80;95.80;;;;;;5052145;28;20433;-33
2022/07/24 00:29:56;;;;;;;7.47;5.97;;;17.80;96.10;;;;;;5056608;28;20124;-33
2022/07/24 00:32:23;;;;;;;9.25;5.97;;;17.70;96.40;;;;;;5039692;28;20132;-32
2022/07/24 00:34:51;;;;;;;8.00;4.80;;;17.70;96.50;;;;;;5055722;28;20124;-33
2022/07/24 00:37:18;;;;;;;7.03;5.05;;;17.70;96.30;;;;;;5071233;28;20043;-33
2022/07/24 00:39:47;;;;;;;8.02;5.60;;;17.70;96.20;;;;;;5073409;28;20468;-33
2022/07/24 00:42:13;;;;;;;8.18;5.88;;;17.70;96.40;;;;;;5056647;28;20433;-33
2022/07/24 00:44:40;;;;;;;7.18;6.10;;;17.60;96.40;;;;;;5053119;28;20072;-32
2022/07/24 00:47:07;;;;;;;8.60;6.65;;;17.60;96.40;;;;;;5061246;28;20083;-33
2022/07/24 00:49:34;;;;;;;9.85;7.40;;;17.60;96.60;;;;;;5048486;28;20045;-33
2022/07/24 00:52:02;;;;;;;10.73;8.02;;;17.50;96.80;;;;;;5051274;28;20380;-33
2022/07/24 00:54:28;;;;;;;9.75;6.80;;;17.50;97.20;;;;;;5052744;28;20059;-33
2022/07/24 00:56:55;;;;;;;10.32;7.45;;;17.40;97.20;;;;;;5058035;28;20044;-33
2022/07/24 00:59:22;;;;;;;13.98;7.63;;;17.40;97.20;;;;;;5070308;28;20052;-33
2022/07/24 01:01:51;;;;;;;10.23;7.25;;;17.40;97.30;;;;;;5064741;28;20059;-33
2022/07/24 01:04:19;;;;;;;9.57;7.63;;;17.40;97.30;;;;;;5071045;28;20048;-33
2022/07/24 01:06:46;;;;;;;11.85;8.25;;;17.30;97.30;;;;;;5067096;28;20123;-33
2022/07/24 01:09:14;;;;;;;9.10;6.18;;;17.30;97.30;;;;;;5063919;28;20484;-33
2022/07/24 01:11:40;;;;;;;8.77;7.00;;;17.40;97.30;;;;;;5072582;28;20447;-33
2022/07/24 01:14:07;;;;;;;7.35;6.55;;;17.30;97.00;;;;;;5061630;28;20049;-33
2022/07/24 01:16:34;;;;;;;11.05;7.97;;;17.40;96.90;;;;;;5051258;28;20137;-33
2022/07/24 01:19:01;;;;;;;11.85;8.23;;;17.30;97.00;;;;;;5055586;28;20132;-33
2022/07/24 01:21:29;;;;;;;11.57;7.82;;;17.30;97.20;;;;;;5046589;28;20048;-33
2022/07/24 01:23:55;;;;;;;10.90;8.38;;;17.30;97.20;;;;;;5052595;28;20041;-33
2022/07/24 01:26:22;;;;;;;11.38;6.82;;;17.30;97.50;;;;;;5057004;28;20596;-33
2022/07/24 01:28:49;;;;;;;13.05;7.30;;;17.20;97.10;;;;;;5052407;28;20139;-33
2022/07/24 01:31:16;;;;;;;8.55;7.63;;;17.20;97.00;;;;;;5056460;28;20051;-33
2022/07/24 01:33:42;;;;;;;11.18;7.32;;;17.30;97.40;;;;;;5057025;28;20427;-33
2022/07/24 01:36:09;;;;;;;13.63;8.25;;;17.20;96.90;;;;;;5060586;28;20464;-33
2022/07/24 01:38:37;;;;;;;11.40;8.65;;;17.20;97.20;;;;;;5055897;28;20124;-33
2022/07/24 01:41:04;;;;;;;9.02;7.55;;;17.20;97.50;;;;;;5057596;28;20076;-34
2022/07/24 01:43:31;;;;;;;10.32;8.25;;;17.10;97.40;;;;;;5062859;28;20124;-34
2022/07/24 01:45:58;;;;;;;12.00;8.52;;;17.10;97.30;;;;;;5051755;28;20091;-33
2022/07/24 01:48:25;;;;;;;11.80;8.68;;;17.10;97.40;;;;;;5056256;28;20076;-33
2022/07/24 01:50:51;;;;;;;11.00;8.65;;;17.10;97.70;;;;;;5050586;28;20037;-33
2022/07/24 01:53:18;;;;;;;10.25;9.10;;;17.10;97.90;;;;;;5061862;28;20051;-33
2022/07/24 01:55:46;;;;;;;11.48;8.18;;;17.10;98.10;;;;;;5051178;28;20131;-33
2022/07/24 01:58:13;;;;;;;10.90;8.60;;;17.00;98.30;;;;;;5062360;28;20135;-33
2022/07/24 02:00:40;;;;;;;10.00;8.20;;;17.00;98.60;;;;;;5058808;28;20469;-33
2022/07/24 02:03:06;;;;;;;10.48;8.15;;;17.00;98.70;;;;;;5056685;28;20041;-34
2022/07/24 02:05:33;;;;;;;11.43;7.68;;;16.90;98.80;;;;;;5051334;28;20132;-34
2022/07/24 02:08:00;;;;;;;13.10;8.65;;;16.90;98.80;;;;;;5037665;28;20060;-33
2022/07/24 02:10:27;;;;;;;9.90;8.07;;;16.90;98.90;;;;;;5046200;28;20121;-40
2022/07/24 02:12:55;;;;;;;8.57;7.68;;;16.90;98.90;;;;;;5050042;28;20107;-44
2022/07/24 02:15:22;;;;;;;10.50;7.65;;;16.90;98.90;;;;;;5059077;28;20040;-44
2022/07/24 02:17:49;;;;;;;10.98;7.90;;;16.90;99.20;;;;;;5049175;28;20041;-43
2022/07/24 02:20:16;;;;;;;8.63;7.43;;;16.90;98.80;;;;;;5064718;28;20068;-40
2022/07/24 02:22:43;;;;;;;9.45;7.30;;;16.90;98.70;;;;;;5045852;28;20079;-41
2022/07/24 02:25:10;;;;;;;8.57;7.50;;;16.90;98.80;;;;;;5040699;28;20045;-41
2022/07/24 02:27:37;;;;;;;9.32;7.85;;;16.80;98.90;;;;;;5052646;28;20463;-43
2022/07/24 02:30:06;;;;;;;8.25;7.45;;;16.90;98.90;;;;;;5045420;28;20080;-43
2022/07/24 02:32:33;;;;;;;9.73;6.47;;;16.80;99.00;;;;;;5048074;28;20638;-43
2022/07/24 02:35:00;;;;;;;12.93;7.63;;;16.80;98.80;;;;;;5050739;28;20141;-43
2022/07/24 02:37:27;;;;;;;11.98;8.07;;;16.80;98.90;;;;;;5065126;28;20135;-43
2022/07/24 02:39:53;;;;;;;9.88;8.05;;;16.80;99.20;;;;;;5063826;28;20135;-43
2022/07/24 02:42:20;;;;;;;8.73;6.78;;;16.80;99.40;;;;;;5067877;28;20543;-43
2022/07/24 02:44:47;;;;;;;7.65;6.88;;;16.80;99.30;;;;;;5052006;28;20422;-43
2022/07/24 02:47:15;;;;;;;9.55;7.57;;;16.80;99.20;;;;;;5054028;28;20092;-43
2022/07/24 02:49:42;;;;;;;8.02;7.22;;;16.80;99.10;;;;;;5056228;28;20123;-43
2022/07/24 02:52:08;;;;;;;10.52;8.50;;;16.80;99.20;;;;;;5047653;28;20127;-43
2022/07/24 02:54:35;;;;;;;9.95;7.32;;;16.80;99.30;;;;;;5064081;28;20568;-42
2022/07/24 02:57:02;;;;;;;10.60;7.60;;;16.80;99.40;;;;;;5056348;28;20123;-42
2022/07/24 02:59:32;;;;;;;10.93;8.00;;;16.80;99.50;;;;;;5043941;28;20084;-42
2022/07/24 03:01:58;;;;;;;13.00;8.13;;;16.70;99.60;;;;;;5048897;28;20556;-41
2022/07/24 03:04:26;;;;;;;9.57;7.28;;;16.80;99.60;;;;;;5045555;28;20079;-41
2022/07/24 03:06:53;;;;;;;7.90;7.10;;;16.80;99.70;;;;;;5055270;28;20532;-42
2022/07/24 03:09:20;;;;;;;9.57;7.53;;;16.80;99.50;;;;;;5056648;28;20179;-41
2022/07/24 03:11:47;;;;;;;8.68;7.40;;;16.80;99.40;;;;;;5057750;28;20563;-42
2022/07/24 03:14:13;;;;;;;8.38;7.53;;;16.70;99.40;;;;;;5067355;28;20135;-41
2022/07/24 03:16:40;;;;;;;8.98;7.18;;;16.70;99.50;;;;;;5046869;28;20044;-41
2022/07/24 03:19:07;;;;;;;9.77;6.80;;;16.70;99.50;;;;;;5058711;28;20040;-42
2022/07/24 03:21:35;;;;;;;8.75;7.85;;;16.70;99.40;;;;;;5058680;28;20143;-41
2022/07/24 03:24:02;;;;;;;10.55;7.15;;;16.70;99.60;;;;;;5049742;28;20073;-41
2022/07/24 03:26:28;;;;;;;9.02;7.13;;;16.70;99.70;;;;;;5049401;28;20131;-42
2022/07/24 03:28:55;;;;;;;12.93;7.68;;;16.70;99.60;;;;;;5066973;28;20458;-42
2022/07/24 03:31:22;;;;;;;12.13;7.90;;;16.70;99.70;;;;;;5052417;28;20567;-42
2022/07/24 03:33:48;;;;;;;8.93;7.15;;;16.70;99.80;;;;;;5049378;28;20120;-42
2022/07/24 03:36:15;;;;;;;8.45;7.10;;;16.70;99.70;;;;;;5061936;28;20044;-42
2022/07/24 03:38:43;;;;;;;9.32;6.82;;;16.70;99.70;;;;;;5040953;28;20046;-42
2022/07/24 03:41:10;;;;;;;10.52;8.13;;;16.70;99.70;;;;;;5041610;28;20037;-42
2022/07/24 03:43:37;;;;;;;11.98;8.45;;;16.70;99.90;;;;;;5056769;28;20127;-42
2022/07/24 03:46:04;;;;;;;7.90;6.85;;;16.70;99.90;;;;;;5050369;28;20051;-42
2022/07/24 03:48:30;;;;;;;11.25;7.55;;;16.60;99.90;;;;;;5052009;28;20048;-42
2022/07/24 03:50:58;;;;;;;12.40;8.10;;;16.60;99.90;;;;;;5068583;28;20124;-42
2022/07/24 03:53:24;;;;;;;9.43;6.93;;;16.50;99.90;;;;;;5055632;28;20077;-42
2022/07/24 03:55:52;;;;;;;9.65;8.13;;;16.50;99.90;;;;;;5050464;28;20520;-42
2022/07/24 03:58:19;;;;;;;10.23;7.65;;;16.60;99.90;;;;;;5050724;28;20048;-43
2022/07/24 04:00:46;;;;;;;9.07;7.10;;;16.60;99.90;;;;;;5043133;28;20052;-42
2022/07/24 04:03:13;;;;;;;8.23;6.68;;;16.50;99.90;;;;;;5054539;28;20067;-42
2022/07/24 04:05:39;;;;;;;10.68;7.93;;;16.60;99.90;;;;;;5048385;28;20429;-42
2022/07/24 04:08:06;;;;;;;7.95;7.15;;;16.60;99.90;;;;;;5041620;28;20132;-42
2022/07/24 04:10:33;;;;;;;10.55;7.97;;;16.60;99.90;;;;;;5032082;28;20052;-42
2022/07/24 04:13:01;;;;;;;11.25;8.63;;;16.60;99.90;;;;;;5044834;28;20139;-42
2022/07/24 04:15:28;;;;;;;11.23;8.00;;;16.60;99.90;;;;;;5074225;28;20048;-42
2022/07/24 04:17:54;;;;;;;8.65;7.55;;;16.60;99.90;;;;;;5053094;28;20136;-43
2022/07/24 04:20:21;;;;;;;12.27;7.90;;;16.60;99.90;;;;;;5055873;28;20127;-42
2022/07/24 04:22:48;;;;;;;13.27;7.35;;;16.60;99.90;;;;;;5058446;28;20103;-42
2022/07/24 04:25:15;;;;;;;13.88;7.90;;;16.60;99.90;;;;;;5053903;28;20132;-42
2022/07/24 04:27:43;;;;;;;11.25;8.10;;;16.60;99.90;;;;;;5043752;28;20052;-43
2022/07/24 04:30:12;;;;;;;9.00;7.70;;;16.60;99.90;;;;;;5052307;28;20049;-43
2022/07/24 04:32:39;;;;;;;9.77;7.90;;;16.60;99.90;;;;;;5039764;28;20519;-43
2022/07/24 04:35:06;;;;;;;14.43;8.27;;;16.60;99.90;;;;;;5052524;28;20447;-42
2022/07/24 04:37:33;;;;;;;19.85;7.72;;;16.70;99.90;;;;;;5051797;28;20057;-42
2022/07/24 04:40:00;;;;;;;9.63;7.65;;;16.60;99.90;;;;;;5049544;28;20080;-42
2022/07/24 04:42:27;;;;;;;7.63;6.82;;;16.60;99.90;;;;;;5038812;28;20495;-43
2022/07/24 04:44:53;;;;;;;12.73;7.72;;;16.60;99.90;;;;;;5059941;28;20136;-42
2022/07/24 04:47:22;;;;;;;10.52;7.85;;;16.70;99.90;;;;;;5056809;28;20072;-42
2022/07/24 04:49:48;;;;;;;11.52;7.03;;;16.70;99.90;;;;;;5051706;28;20076;-42
2022/07/24 04:52:15;;;;;;;9.70;8.10;;;16.70;99.90;;;;;;5049775;28;20051;-42
2022/07/24 04:54:42;;;;;;;9.25;8.18;;;16.70;99.90;;;;;;5039730;28;20045;-43
2022/07/24 04:57:08;;;;;;;10.30;8.00;;;16.70;99.90;;;;;;5063140;28;20087;-43
2022/07/24 04:59:35;;;;;;;14.18;8.25;;;16.70;99.90;;;;;;5052472;28;20049;-43
2022/07/24 05:02:02;;;;;;;10.90;7.80;;;16.80;99.90;;;;;;5051065;28;20537;-43
2022/07/24 05:04:30;;;;;;;9.63;8.20;;;16.80;99.90;;;;;;5035651;28;21438;-43
2022/07/24 05:06:57;;;;;;;10.35;8.00;;;16.80;99.90;;;;;;5039417;28;20452;-43
2022/07/24 05:09:24;;;;;;;11.65;8.43;;;16.90;99.90;;;;;;5054825;28;20094;-43
2022/07/24 05:11:51;;;;;;;11.45;8.32;;;16.90;99.90;;;;;;5062315;28;20098;-43
2022/07/24 05:14:17;;;;;;;11.13;8.70;;;16.90;99.90;;;;;;5053824;28;20453;-42
2022/07/24 05:16:44;;;;;;;12.35;8.80;;;17.00;99.90;;;;;;5052985;28;20116;-42
2022/07/24 05:19:11;;;;;;;11.82;8.75;;;16.90;99.90;;;;;;5056055;28;20131;-42
2022/07/24 05:21:39;;;;;;;10.85;8.45;;;17.00;99.90;;;;;;5047787;28;20140;-43
2022/07/24 05:24:06;;;;;;;13.80;8.68;;;17.00;99.90;;;;;;5053106;28;20081;-43
2022/07/24 05:26:33;;;;;;;11.90;9.02;;;17.10;99.90;;;;;;5054276;28;21446;-43
2022/07/24 05:29:00;;;;;;;11.32;8.93;;;17.20;99.90;;;;;;5058598;28;20396;-43
2022/07/24 05:31:26;;;;;;;13.02;9.20;;;17.30;99.90;;;;;;5065777;28;21218;-43
2022/07/24 05:33:53;;;;;;;10.57;9.02;;;17.40;99.90;;;;;;5051313;28;20423;-43
2022/07/24 05:36:20;;;;;;;15.27;9.43;;;17.40;99.90;;;;;;5035731;28;20042;-43
2022/07/24 05:38:48;;;;;;;10.65;9.48;;;17.50;99.90;;;;;;5049224;28;20124;-43
2022/07/24 05:41:15;;;;;;;15.77;9.88;;;17.50;99.90;;;;;;5050214;28;20384;-43
2022/07/24 05:43:41;;;;;;;14.55;10.30;;;17.50;99.90;;;;;;5053337;28;20045;-43
2022/07/24 05:46:08;;;;;;;11.43;9.25;;;17.60;99.90;;;;;;5038602;28;20080;-43
2022/07/24 05:48:35;;;;;;;13.00;9.70;;;17.60;99.90;;;;;;5054075;28;20175;-42
2022/07/24 05:51:02;;;;;;;12.63;10.43;;;17.70;99.90;;;;;;5059579;28;20127;-42
2022/07/24 05:53:28;;;;;;;13.18;10.95;;;17.80;99.90;;;;;;5065450;28;20127;-43
2022/07/24 05:55:56;;;;;;;14.18;11.15;;;17.90;99.90;;;;;;5058751;28;20047;-43
2022/07/24 05:58:23;;;;;;;14.25;11.05;;;18.00;99.90;;;;;;5038969;28;20428;-43
2022/07/24 06:00:50;;;;;;;14.75;11.48;;;18.00;99.90;;;;;;5038340;28;20081;-43
2022/07/24 06:03:17;;;;;;;16.42;11.88;;;18.00;99.90;;;;;;5037927;28;20459;-43
2022/07/24 06:05:43;;;;;;;14.77;10.85;;;18.10;99.90;;;;;;5038288;28;20428;-43
2022/07/24 06:08:10;;;;;;;13.52;12.13;;;18.20;99.90;;;;;;5047245;28;20151;-43
2022/07/24 06:10:37;;;;;;;15.07;11.50;;;18.30;99.90;;;;;;5059458;28;20451;-43
2022/07/24 06:13:05;;;;;;;16.42;12.10;;;18.50;99.90;;;;;;5056824;28;20119;-43
2022/07/24 06:15:32;;;;;;;15.07;11.90;;;18.60;99.70;;;;;;5042106;28;20096;-42
2022/07/24 06:17:58;;;;;;;14.77;11.40;;;18.70;99.60;;;;;;5049771;28;20384;-43
2022/07/24 06:20:25;;;;;;;14.23;11.40;;;18.80;99.50;;;;;;5050002;28;20044;-43
2022/07/24 06:22:52;;;;;;;14.57;11.50;;;18.90;99.30;;;;;;5050094;28;20120;-43
2022/07/24 06:25:19;;;;;;;17.88;12.25;;;19.00;99.30;;;;;;5048956;28;20140;-42
2022/07/24 06:27:46;;;;;;;16.58;11.82;;;19.20;99.00;;;;;;5051170;28;20059;-43
2022/07/24 06:30:15;;;;;;;17.17;11.52;;;19.30;98.90;;;;;;5042543;28;20060;-43
2022/07/24 06:32:42;;;;;;;16.08;12.02;;;19.40;98.90;;;;;;5048063;28;20041;-43
2022/07/24 06:35:09;;;;;;;19.15;12.32;;;19.50;98.70;;;;;;5050972;28;20482;-43
2022/07/24 06:37:35;;;;;;;24.27;13.10;;;19.60;98.60;;;;;;5048816;28;20131;-43
2022/07/24 06:40:02;;;;;;;18.83;12.80;;;19.80;98.30;;;;;;5047173;28;20532;-43
2022/07/24 06:42:29;;;;;;;17.13;13.43;;;19.90;98.50;;;;;;5051990;28;20050;-43
2022/07/24 06:44:56;;;;;;;20.42;13.90;;;20.00;98.10;;;;;;5050586;28;20457;-43
2022/07/24 06:47:25;;;;;;;18.20;13.60;;;20.10;97.80;;;;;;5062934;28;20052;-43
2022/07/24 06:49:52;;;;;;;16.00;13.20;;;20.20;97.60;;;;;;5042772;28;20341;-43
2022/07/24 06:52:19;;;;;;;18.60;13.30;;;20.30;97.60;;;;;;5061565;28;20052;-43
2022/07/24 06:54:46;;;;;;;16.33;12.65;;;20.50;97.50;;;;;;5052412;28;20048;-43
2022/07/24 06:57:13;;;;;;;17.98;12.15;;;20.60;97.30;;;;;;5048259;28;20041;-43
2022/07/24 06:59:40;;;;;;;18.48;14.07;;;20.80;97.30;;;;;;5052087;28;20045;-44
2022/07/24 07:02:06;;;;;;;22.63;12.90;;;20.90;97.00;;;;;;5047543;28;20366;-43
2022/07/24 07:04:34;;;;;;;17.48;13.05;;;21.10;96.80;;;;;;5048172;28;20056;-43
2022/07/24 07:07:01;;;;;;;14.65;13.15;;;21.20;96.70;;;;;;5046392;28;20076;-43
2022/07/24 07:09:28;;;;;;;19.00;13.48;;;21.40;96.60;;;;;;5041331;28;20052;-43
2022/07/24 07:11:55;;;;;;;16.92;13.02;;;21.60;96.20;;;;;;5042014;28;20052;-43
2022/07/24 07:14:21;;;;;;;19.73;13.48;;;21.70;95.90;;;;;;5047459;28;20044;-43
2022/07/24 07:16:48;;;;;;;17.52;12.75;;;21.80;95.60;;;;;;5046837;28;20136;-43
2022/07/24 07:19:15;;;;;;;17.13;11.85;;;21.90;95.40;;;;;;5056527;28;20127;-43
2022/07/24 07:21:43;;;;;;;17.73;11.88;;;22.10;95.40;;;;;;5071460;28;20072;-42
2022/07/24 07:24:10;;;;;;;13.63;10.82;;;22.30;95.00;;;;;;5040826;28;20444;-42
2022/07/24 07:26:37;;;;;;;14.15;11.50;;;22.30;94.60;;;;;;5049590;28;20048;-43
2022/07/24 07:29:04;;;;;;;16.50;11.50;;;22.50;94.10;;;;;;5042434;28;20376;-43
2022/07/24 07:31:31;;;;;;;16.60;11.95;;;22.60;94.00;;;;;;5043213;28;20128;-43
2022/07/24 07:33:57;;;;;;;16.42;12.35;;;22.70;93.40;;;;;;5051605;28;20086;-43
2022/07/24 07:36:24;;;;;;;18.65;12.35;;;22.80;93.10;;;;;;5055402;28;20136;-43
2022/07/24 07:38:52;;;;;;;13.25;11.13;;;22.90;93.00;;;;;;5051468;28;20112;-42
2022/07/24 07:41:19;;;;;;;14.77;9.93;;;23.10;92.90;;;;;;5064473;28;20041;-43
2022/07/24 07:43:46;;;;;;;12.00;9.95;;;23.20;92.10;;;;;;5064198;28;20098;-43
2022/07/24 07:46:13;;;;;;;12.93;8.52;;;23.30;91.60;;;;;;5041506;28;20099;-42
2022/07/24 07:48:40;;;;;;;12.07;7.85;;;23.50;91.40;;;;;;5044993;28;20053;-43
2022/07/24 07:51:07;;;;;;;11.73;9.45;;;23.60;91.10;;;;;;5054852;28;20124;-43
2022/07/24 07:53:34;;;;;;;11.85;8.30;;;23.80;90.60;;;;;;5041327;28;20069;-43
2022/07/24 07:56:03;;;;;;;11.10;7.63;;;23.90;90.70;;;;;;5041660;28;20087;-43
2022/07/24 07:58:30;;;;;;;10.80;6.90;;;24.00;90.40;;;;;;5052901;28;20049;-42
2022/07/24 08:00:57;;;;;;;7.25;5.65;;;24.10;89.30;;;;;;5050993;28;20528;-43
2022/07/24 08:03:24;;;;;;;11.10;5.78;;;24.20;88.50;;;;;;5056142;28;20442;-43
2022/07/24 08:05:50;;;;;;;5.78;5.00;;;24.40;87.80;;;;;;5052313;28;20139;-42
2022/07/24 08:08:17;;;;;;;8.23;4.70;;;24.50;87.90;;;;;;5059500;28;20044;-43
2022/07/24 08:10:44;;;;;;;7.32;4.40;;;24.70;86.70;;;;;;5062944;28;20094;-43
2022/07/24 08:13:14;;;;;;;7.57;4.30;;;24.90;86.20;;;;;;5057540;28;20121;-43
2022/07/24 08:15:41;;;;;;;12.82;4.30;;;25.00;85.30;;;;;;5051159;28;20049;-43
2022/07/24 08:18:08;;;;;;;6.38;4.15;;;25.20;84.90;;;;;;5048001;28;20132;-43
2022/07/24 08:20:34;;;;;;;4.40;3.75;;;25.20;84.20;;;;;;5055287;28;20127;-44
2022/07/24 08:23:01;;;;;;;8.15;3.88;;;25.20;83.10;;;;;;5047166;28;20133;-43
2022/07/24 08:25:28;;;;;;;4.25;3.60;;;25.30;84.00;;;;;;5067579;28;20131;-43
2022/07/24 08:27:55;;;;;;;6.22;4.10;;;25.50;83.30;;;;;;5060310;28;20171;-43
2022/07/24 08:30:25;;;;;;;5.50;3.50;;;25.70;83.70;;;;;;5053682;28;20088;-43
2022/07/24 08:32:51;;;;;;;5.85;4.10;;;25.90;83.00;;;;;;5052754;28;20041;-43
2022/07/24 08:35:18;;;;;;;4.80;3.50;;;26.00;82.30;;;;;;5045896;28;20120;-43
2022/07/24 08:37:45;;;;;;;7.15;3.65;;;26.10;82.10;;;;;;5044554;28;20128;-43
2022/07/24 08:40:12;;;;;;;7.03;3.60;;;26.10;82.10;;;;;;5051036;28;20112;-43
2022/07/24 08:42:39;;;;;;;4.72;3.50;;;26.20;81.90;;;;;;5050014;28;20084;-44
2022/07/24 08:45:07;;;;;;;5.25;4.00;;;26.20;81.60;;;;;;5051813;28;20209;-43
2022/07/24 08:47:37;;;;;;;4.63;2.80;;;26.20;81.20;;;;;;5051059;28;20041;-44
2022/07/24 08:50:04;;;;;;;4.13;2.65;;;26.30;80.20;;;;;;5045836;28;20073;-43
2022/07/24 08:52:31;;;;;;;5.75;3.47;;;26.20;79.40;;;;;;5037551;28;20125;-43
2022/07/24 08:54:58;;;;;;;4.03;2.97;;;26.40;79.50;;;;;;5048437;28;20045;-43
2022/07/24 08:57:25;;;;;;;4.40;2.75;;;26.50;78.70;;;;;;5047327;28;20037;-44
2022/07/24 08:59:52;;;;;;;4.47;3.20;;;26.70;78.40;;;;;;5042767;28;20098;-44
2022/07/24 09:02:18;;;;;;;4.93;2.90;;;26.80;77.20;;;;;;5044526;28;20152;-43
2022/07/24 09:04:47;;;;;;;4.20;2.83;;;26.90;77.20;;;;;;5047035;28;20141;-44
2022/07/24 09:07:16;;;;;;;7.95;3.20;;;27.00;77.40;;;;;;5048025;28;20444;-44
2022/07/24 09:09:43;;;;;;;4.47;2.90;;;27.00;77.50;;;;;;5042825;28;20102;-43
2022/07/24 09:12:12;;;;;;;3.38;2.85;;;27.00;76.70;;;;;;5051740;28;20032;-43
2022/07/24 09:14:40;;;;;;;2.63;2.28;;;27.10;75.60;;;;;;5038561;28;20045;-43
2022/07/24 09:17:07;;;;;;;5.25;3.00;;;27.10;75.10;;;;;;5052651;28;20073;-42
2022/07/24 09:19:48;;;;;;;5.85;2.80;;;27.20;74.80;;;;;;5050253;28;20059;-43
2022/07/24 09:22:32;;;;;;;3.13;2.50;;;27.40;74.70;;;;;;5047431;28;20088;-43
2022/07/24 09:25:11;;;;;;;4.43;2.60;;;27.50;74.80;;;;;;5051788;28;20046;-43
2022/07/24 09:27:39;;;;;;;2.85;2.50;;;27.80;73.30;;;;;;5049150;28;20120;-43
2022/07/24 09:30:07;;;;;;;4.72;2.60;;;27.90;72.90;;;;;;5053148;28;20065;-43
2022/07/24 09:32:34;;;;;;;4.32;2.90;;;28.00;72.20;;;;;;5044151;28;20123;-44
2022/07/24 09:35:02;;;;;;;3.22;2.90;;;28.10;72.30;;;;;;5037819;28;20049;-43
2022/07/24 09:37:29;;;;;;;5.70;2.50;;;28.10;71.10;;;;;;5047156;28;20127;-43
2022/07/24 09:40:06;;;;;;;5.18;2.75;;;28.00;70.80;;;;;;5047395;28;20111;-43
2022/07/24 09:42:38;;;;;;;4.72;2.92;;;28.00;70.60;;;;;;5047663;28;20452;-43
2022/07/24 09:45:08;;;;;;;2.90;2.30;;;27.90;70.70;;;;;;5045997;28;20038;-43
2022/07/24 09:47:35;;;;;;;6.07;2.55;;;28.00;71.10;;;;;;5038825;28;20099;-44
2022/07/24 09:50:13;;;;;;;3.50;2.70;;;28.20;70.60;;;;;;5038743;28;20091;-44
2022/07/24 09:52:41;;;;;;;6.55;2.90;;;28.30;70.70;;;;;;5067028;28;20089;-43
2022/07/24 09:55:20;;;;;;;3.50;2.40;;;28.50;70.40;;;;;;5046564;28;20072;-43
2022/07/24 09:57:47;;;;;;;4.85;2.60;;;28.60;69.00;;;;;;5038336;28;20133;-43
2022/07/24 10:00:15;;;;;;;3.25;2.67;;;28.70;69.00;;;;;;5043002;28;20129;-44
2022/07/24 10:02:44;;;;;;;6.25;2.90;;;28.80;68.20;;;;;;5045976;28;20085;-43
2022/07/24 10:05:13;;;;;;;3.78;2.58;;;28.90;67.60;;;;;;5052410;28;20099;-43
2022/07/24 10:07:39;;;;;;;4.88;2.63;;;29.10;67.00;;;;;;5052772;28;20082;-44
2022/07/24 10:10:07;;;;;;;3.60;2.58;;;29.20;67.10;;;;;;5045060;28;20072;-44
2022/07/24 10:12:34;;;;;;;4.45;2.60;;;29.30;67.40;;;;;;5044280;28;20073;-43
2022/07/24 10:15:01;;;;;;;6.70;2.60;;;29.50;66.80;;;;;;5045469;28;20135;-43
2022/07/24 10:17:34;;;;;;;4.10;2.53;;;29.60;65.90;;;;;;5037111;28;20053;-43
2022/07/24 10:20:04;;;;;;;4.90;2.70;;;29.70;65.00;;;;;;5031904;28;20492;-43
2022/07/24 10:22:35;;;;;;;3.88;2.60;;;29.70;65.30;;;;;;5040185;28;20076;-44
2022/07/24 10:25:06;;;;;;;4.97;2.47;;;29.80;65.50;;;;;;5043875;28;20045;-44
2022/07/24 10:27:33;;;;;;;3.80;2.87;;;29.90;65.00;;;;;;5052488;28;20494;-44
2022/07/24 10:30:01;;;;;;;3.67;2.50;;;30.00;64.20;;;;;;5032162;28;20470;-42
2022/07/24 10:32:28;;;;;;;5.75;2.70;;;30.10;64.20;;;;;;5032597;28;20128;-43
2022/07/24 10:35:14;;;;;;;6.05;2.92;;;30.30;63.40;;;;;;5051697;28;20040;-42
2022/07/24 10:37:46;;;;;;;3.80;2.60;;;30.40;63.50;;;;;;5036161;28;20053;-43
2022/07/24 10:40:18;;;;;;;3.65;2.30;;;30.60;64.20;;;;;;5043280;28;20452;-43
2022/07/24 10:43:25;;;;;;;3.55;2.42;;;30.70;63.60;;;;;;5051979;28;20052;-43
2022/07/24 10:46:13;;;;;;;7.18;2.92;;;30.80;62.60;;;;;;5033563;28;20072;-43
2022/07/24 10:48:41;;;;;;;4.35;2.70;;;30.80;62.50;;;;;;5038226;28;20504;-43
2022/07/24 10:51:13;;;;;;;5.20;2.40;;;30.70;61.70;;;;;;5052023;28;20052;-43
2022/07/24 10:53:56;;;;;;;2.95;2.47;;;30.70;61.00;;;;;;5046701;28;20120;-42
2022/07/24 10:56:25;;;;;;;2.90;2.35;;;30.60;61.50;;;;;;5050173;28;20045;-43
2022/07/24 10:58:55;;;;;;;2.92;2.42;;;30.50;61.90;;;;;;5052080;28;20484;-43
2022/07/24 11:01:33;;;;;;;3.20;2.42;;;30.40;62.10;;;;;;5051919;28;20068;-42
2022/07/24 11:04:00;;;;;;;4.45;2.30;;;30.50;62.00;;;;;;5039604;28;20132;-43
2022/07/24 11:06:41;;;;;;;4.68;2.58;;;30.50;62.00;;;;;;5037142;28;20126;-42
2022/07/24 11:09:09;;;;;;;4.95;2.50;;;30.60;61.80;;;;;;5050202;28;20045;-43
2022/07/24 11:11:40;;;;;;;4.35;2.35;;;30.70;61.20;;;;;;5049237;28;20092;-43
2022/07/24 11:14:07;;;;;;;3.03;2.13;;;30.80;60.80;;;;;;5050535;28;20083;-43
2022/07/24 11:16:34;;;;;;;5.22;2.50;;;30.90;59.70;;;;;;5052404;28;20436;-44
2022/07/24 11:19:29;;;;;;;8.65;2.10;;;31.00;59.30;;;;;;5050787;28;20053;-43
2022/07/24 11:22:09;;;;;;;2.95;2.05;;;31.10;60.20;;;;;;5048218;28;20528;-44
2022/07/24 11:24:40;;;;;;;2.77;2.10;;;31.20;59.50;;;;;;5053004;28;20045;-43
2022/07/24 11:27:08;;;;;;;7.10;2.50;;;31.20;59.20;;;;;;5053251;28;20379;-43
2022/07/24 11:29:36;;;;;;;2.78;2.17;;;31.20;58.30;;;;;;5042706;28;20123;-43
2022/07/24 11:32:03;;;;;;;3.85;2.17;;;31.30;58.20;;;;;;5036711;28;20107;-43
2022/07/24 11:34:31;;;;;;;3.05;2.33;;;31.40;58.00;;;;;;5051878;28;20039;-43
2022/07/24 11:36:58;;;;;;;3.10;2.08;;;31.50;59.00;;;;;;5045536;28;20508;-43
2022/07/24 11:39:27;;;;;;;4.53;2.33;;;31.60;59.10;;;;;;5055750;28;20085;-42
2022/07/24 11:41:56;;;;;;;7.20;2.70;;;31.70;58.00;;;;;;5056007;28;20090;-42
2022/07/24 11:44:25;;;;;;;3.50;2.47;;;31.80;58.30;;;;;;5053886;28;20092;-43
2022/07/24 11:46:51;;;;;;;2.30;2.10;;;31.90;58.00;;;;;;5039121;28;20083;-43
2022/07/24 11:49:18;;;;;;;2.60;2.40;;;31.90;58.60;;;;;;5051280;28;20072;-43
2022/07/24 11:51:45;;;;;;;4.43;2.33;;;32.00;57.40;;;;;;5056157;28;20127;-43
2022/07/24 11:54:13;;;;;;;4.50;2.28;;;32.00;57.40;;;;;;5039271;28;20053;-43
2022/07/24 11:56:39;;;;;;;3.90;2.47;;;32.00;57.20;;;;;;5054294;28;20209;-43
2022/07/24 11:59:21;;;;;;;5.00;2.45;;;32.00;56.10;;;;;;5055286;28;20107;-43
2022/07/24 12:01:47;;;;;;;3.53;2.30;;;32.00;56.40;;;;;;5055502;28;20080;-43
2022/07/24 12:04:15;;;;;;;3.85;2.00;;;32.00;55.20;;;;;;5055452;28;20045;-43
2022/07/24 12:06:45;;;;;;;4.70;2.33;;;32.00;55.60;;;;;;5046514;28;20132;-43
2022/07/24 12:09:12;;;;;;;4.85;2.70;;;31.90;54.90;;;;;;5040389;28;20107;-43
2022/07/24 12:11:38;;;;;;;5.07;2.10;;;31.80;55.50;;;;;;5041157;28;20420;-43
2022/07/24 12:14:06;;;;;;;3.20;2.20;;;31.90;56.10;;;;;;5054006;28;20045;-42
2022/07/24 12:16:34;;;;;;;2.88;2.33;;;32.10;56.40;;;;;;5049918;28;20107;-43
2022/07/24 12:19:14;;;;;;;4.85;2.42;;;32.20;55.50;;;;;;5043897;28;20073;-43
2022/07/24 12:21:41;;;;;;;3.45;2.28;;;32.40;55.20;;;;;;5040056;28;20095;-43
2022/07/24 12:24:07;;;;;;;5.35;2.22;;;32.30;55.50;;;;;;5051394;28;21967;-43
2022/07/24 12:26:34;;;;;;;4.97;2.55;;;32.50;55.40;;;;;;5037851;28;20141;-43
2022/07/24 12:29:09;;;;;;;2.75;2.17;;;32.50;54.70;;;;;;5043412;28;20051;-43
2022/07/24 12:31:37;;;;;;;4.03;2.38;;;32.50;54.10;;;;;;5044595;28;20041;-43
2022/07/24 12:34:04;;;;;;;4.30;2.58;;;32.60;53.30;;;;;;5039008;28;20045;-43
2022/07/24 12:36:31;;;;;;;7.07;2.65;;;32.70;53.80;;;;;;5053617;28;20120;-43
2022/07/24 12:38:58;;;;;;;2.83;2.35;;;32.80;53.40;;;;;;5053802;28;20488;-43
2022/07/24 12:41:26;;;;;;;3.38;2.50;;;32.80;53.30;;;;;;5041812;28;20053;-43
2022/07/24 12:43:54;;;;;;;2.83;2.40;;;32.80;52.40;;;;;;5044735;28;20077;-43